createdAt,value
2019-02-16T00:00:51.897Z,8.60
2019-02-16T00:03:20.448Z,8.60
2019-02-16T00:05:49.010Z,8.50
2019-02-16T00:08:17.539Z,8.50
2019-02-16T00:10:46.066Z,8.50
2019-02-16T00:13:14.608Z,8.50
2019-02-16T00:15:43.194Z,8.50
2019-02-16T00:18:11.760Z,8.50
2019-02-16T00:20:40.318Z,8.40
2019-02-16T00:23:08.870Z,8.40
2019-02-16T00:25:37.384Z,8.30
2019-02-16T00:28:05.922Z,8.30
2019-02-16T00:30:34.406Z,8.30
2019-02-16T00:33:02.874Z,8.20
2019-02-16T00:35:31.365Z,8.20
2019-02-16T00:37:59.939Z,8.20
2019-02-16T00:40:28.481Z,8.20
2019-02-16T00:42:56.977Z,8.20
2019-02-16T00:45:25.587Z,8.20
2019-02-16T00:47:54.118Z,8.10
2019-02-16T00:50:22.592Z,8.10
2019-02-16T00:52:51.098Z,8.10
2019-02-16T00:55:19.639Z,8.10
2019-02-16T01:01:12.295Z,8.10
2019-02-16T01:03:40.864Z,8.10
2019-02-16T01:06:09.423Z,8.10
2019-02-16T01:08:38.008Z,8.10
2019-02-16T01:11:06.562Z,8.00
2019-02-16T01:13:35.123Z,8.00
2019-02-16T01:16:03.661Z,8.00
2019-02-16T01:18:32.190Z,8.00
2019-02-16T01:21:00.722Z,8.00
2019-02-16T01:23:29.285Z,8.00
2019-02-16T01:25:57.862Z,8.00
2019-02-16T01:28:26.392Z,8.00
2019-02-16T01:30:54.882Z,8.00
2019-02-16T01:33:23.352Z,8.00
2019-02-16T01:35:51.834Z,8.00
2019-02-16T01:38:20.418Z,7.90
2019-02-16T01:40:49.744Z,7.90
2019-02-16T01:43:18.311Z,7.90
2019-02-16T01:45:46.962Z,7.90
2019-02-16T01:48:15.506Z,7.90
2019-02-16T01:50:44.170Z,7.90
2019-02-16T01:53:12.708Z,7.80
2019-02-16T01:55:41.262Z,7.80
2019-02-16T01:58:09.742Z,7.80
2019-02-16T02:00:38.291Z,7.80
2019-02-16T02:03:06.861Z,7.80
2019-02-16T02:05:35.395Z,7.70
2019-02-16T02:08:03.948Z,7.70
2019-02-16T02:10:32.454Z,7.70
2019-02-16T02:13:01.036Z,7.70
2019-02-16T02:15:29.662Z,7.60
2019-02-16T02:17:58.221Z,7.60
2019-02-16T02:20:26.773Z,7.60
2019-02-16T02:22:55.421Z,7.60
2019-02-16T02:25:23.970Z,7.50
2019-02-16T02:27:52.533Z,7.50
2019-02-16T02:30:21.357Z,7.40
2019-02-16T02:32:49.929Z,7.40
2019-02-16T02:35:18.629Z,7.40
2019-02-16T02:37:47.268Z,7.30
2019-02-16T02:40:15.800Z,7.30
2019-02-16T02:42:44.328Z,7.30
2019-02-16T02:45:12.904Z,7.30
2019-02-16T02:47:41.830Z,7.30
2019-02-16T02:50:10.369Z,7.30
2019-02-16T02:52:38.928Z,7.20
2019-02-16T02:55:07.862Z,7.20
2019-02-16T02:57:37.600Z,7.20
2019-02-16T03:00:09.193Z,7.20
2019-02-16T03:03:01.815Z,7.20
2019-02-16T03:05:30.389Z,7.10
2019-02-16T03:07:58.915Z,7.10
2019-02-16T03:10:27.484Z,7.10
2019-02-16T03:12:55.943Z,7.10
2019-02-16T03:15:24.522Z,7.00
2019-02-16T03:17:53.073Z,7.00
2019-02-16T03:20:21.652Z,7.00
2019-02-16T03:23:09.543Z,7.00
2019-02-16T03:25:38.111Z,7.00
2019-02-16T03:28:15.787Z,7.00
2019-02-16T03:30:47.354Z,7.00
2019-02-16T03:33:21.826Z,7.00
2019-02-16T03:36:08.194Z,7.00
2019-02-16T03:38:48.729Z,7.00
2019-02-16T03:41:17.311Z,6.90
2019-02-16T03:43:45.861Z,6.90
2019-02-16T03:46:15.365Z,6.90
2019-02-16T03:48:43.933Z,6.90
2019-02-16T03:51:12.485Z,6.90
2019-02-16T03:53:41.025Z,6.90
2019-02-16T03:56:09.517Z,6.90
2019-02-16T03:58:38.076Z,6.90
2019-02-16T04:01:06.621Z,6.90
2019-02-16T04:03:35.204Z,6.90
2019-02-16T04:06:03.755Z,6.90
2019-02-16T04:08:32.297Z,6.90
2019-02-16T04:11:00.787Z,6.90
2019-02-16T04:13:29.353Z,6.90
2019-02-16T04:15:57.839Z,6.90
2019-02-16T04:18:26.418Z,6.90
2019-02-16T04:20:54.973Z,6.90
2019-02-16T04:23:23.537Z,6.80
2019-02-16T04:25:52.328Z,6.80
2019-02-16T04:28:20.882Z,6.80
2019-02-16T04:30:49.510Z,6.80
2019-02-16T04:33:17.985Z,6.80
2019-02-16T04:35:46.627Z,6.80
2019-02-16T04:38:15.184Z,6.70
2019-02-16T04:40:43.763Z,6.70
2019-02-16T04:43:12.903Z,6.70
2019-02-16T04:45:41.408Z,6.70
2019-02-16T04:48:09.938Z,6.70
2019-02-16T04:50:38.491Z,6.70
2019-02-16T04:53:06.955Z,6.60
2019-02-16T04:55:35.485Z,6.60
2019-02-16T04:58:04.034Z,6.60
2019-02-16T05:00:32.873Z,6.60
2019-02-16T05:03:01.452Z,6.50
2019-02-16T05:05:29.984Z,6.50
2019-02-16T05:07:58.520Z,6.50
2019-02-16T05:10:27.061Z,6.50
2019-02-16T05:12:55.649Z,6.40
2019-02-16T05:15:24.221Z,6.40
2019-02-16T05:17:52.761Z,6.40
2019-02-16T05:20:21.351Z,6.40
2019-02-16T05:22:49.882Z,6.30
2019-02-16T05:25:18.373Z,6.30
2019-02-16T05:27:47.030Z,6.30
2019-02-16T05:30:15.663Z,6.30
2019-02-16T05:32:44.222Z,6.30
2019-02-16T05:35:12.689Z,6.30
2019-02-16T05:37:41.360Z,6.30
2019-02-16T05:40:11.224Z,6.30
2019-02-16T05:42:39.773Z,6.20
2019-02-16T05:45:09.872Z,6.20
2019-02-16T05:47:38.435Z,6.20
2019-02-16T05:50:07.130Z,6.20
2019-02-16T05:52:35.803Z,6.20
2019-02-16T05:55:04.377Z,6.20
2019-02-16T05:57:32.944Z,6.20
2019-02-16T06:00:01.543Z,6.30
2019-02-16T06:02:30.080Z,6.30
2019-02-16T06:04:58.644Z,6.30
2019-02-16T06:07:27.205Z,6.30
2019-02-16T06:09:55.805Z,6.30
2019-02-16T06:12:24.366Z,6.30
2019-02-16T06:14:52.911Z,6.30
2019-02-16T06:17:21.437Z,6.30
2019-02-16T06:19:50.015Z,6.30
2019-02-16T06:22:18.613Z,6.30
2019-02-16T06:24:47.194Z,6.30
2019-02-16T06:27:15.740Z,6.30
2019-02-16T06:29:44.342Z,6.30
2019-02-16T06:32:12.967Z,6.30
2019-02-16T06:34:41.521Z,6.30
2019-02-16T06:37:20.387Z,6.30
2019-02-16T06:39:49.769Z,6.30
2019-02-16T06:42:18.331Z,6.40
2019-02-16T06:44:46.895Z,6.40
2019-02-16T06:47:16.282Z,6.40
2019-02-16T06:49:44.847Z,6.40
2019-02-16T06:52:13.409Z,6.40
2019-02-16T06:54:41.880Z,6.50
2019-02-16T06:57:21.059Z,6.50
2019-02-16T06:59:49.618Z,6.50
2019-02-16T07:02:18.841Z,6.60
2019-02-16T07:04:47.397Z,6.60
2019-02-16T07:07:15.939Z,6.60
2019-02-16T07:09:44.437Z,6.60
2019-02-16T07:12:12.986Z,6.70
2019-02-16T07:14:41.529Z,6.70
2019-02-16T07:17:23.413Z,6.70
2019-02-16T07:19:52.517Z,6.70
2019-02-16T07:22:20.982Z,6.80
2019-02-16T07:24:49.470Z,6.80
2019-02-16T07:27:18.056Z,6.90
2019-02-16T07:29:46.640Z,7.00
2019-02-16T07:32:15.212Z,7.00
2019-02-16T07:34:43.756Z,7.10
2019-02-16T07:37:12.215Z,7.10
2019-02-16T07:39:40.721Z,7.20
2019-02-16T07:42:09.304Z,7.20
2019-02-16T07:44:42.469Z,7.30
2019-02-16T07:47:24.422Z,7.40
2019-02-16T07:49:54.680Z,7.40
2019-02-16T07:52:36.260Z,7.50
2019-02-16T07:55:07.018Z,7.60
2019-02-16T07:57:45.667Z,7.70
2019-02-16T08:00:15.881Z,7.80
2019-02-16T08:03:01.155Z,7.90
2019-02-16T08:05:31.273Z,8.00
2019-02-16T08:08:01.443Z,8.10
2019-02-16T08:10:37.246Z,8.20
2019-02-16T08:13:22.137Z,8.30
2019-02-16T08:16:04.255Z,8.40
2019-02-16T08:18:43.219Z,8.50
2019-02-16T08:21:19.225Z,8.60
2019-02-16T08:23:52.205Z,8.70
2019-02-16T08:26:35.579Z,8.80
2019-02-16T08:29:22.068Z,8.90
2019-02-16T08:31:58.177Z,9.00
2019-02-16T08:34:28.375Z,9.10
2019-02-16T08:37:07.538Z,9.30
2019-02-16T08:39:37.666Z,9.40
2019-02-16T08:42:19.605Z,9.50
2019-02-16T08:44:49.738Z,9.60
2019-02-16T08:47:25.694Z,9.80
2019-02-16T08:50:01.910Z,9.90
2019-02-16T08:52:41.142Z,10.10
2019-02-16T08:55:13.973Z,10.20
2019-02-16T08:57:44.170Z,10.40
2019-02-16T09:00:20.275Z,10.50
2019-02-16T09:02:51.287Z,10.60
2019-02-16T09:05:33.364Z,10.70
2019-02-16T09:08:05.986Z,10.90
2019-02-16T09:10:36.196Z,11.00
2019-02-16T09:13:06.443Z,11.10
2019-02-16T09:15:42.435Z,11.20
2019-02-16T09:18:12.568Z,11.40
2019-02-16T09:20:42.684Z,11.50
2019-02-16T09:23:28.772Z,11.60
2019-02-16T09:25:58.875Z,11.70
2019-02-16T09:28:29.812Z,11.80
2019-02-16T09:31:02.700Z,11.90
2019-02-16T09:33:32.975Z,12.00
2019-02-16T09:36:15.236Z,12.10
2019-02-16T09:38:54.054Z,12.20
2019-02-16T09:41:32.957Z,12.40
2019-02-16T09:44:19.239Z,12.50
2019-02-16T09:46:49.483Z,12.60
2019-02-16T09:49:28.536Z,12.70
2019-02-16T09:52:07.420Z,12.80
2019-02-16T09:54:46.284Z,12.90
2019-02-16T09:57:16.426Z,12.90
2019-02-16T09:59:46.604Z,13.00
2019-02-16T10:02:16.722Z,13.10
2019-02-16T10:04:55.778Z,13.20
2019-02-16T10:07:31.997Z,13.30
2019-02-16T10:10:08.475Z,13.40
2019-02-16T10:12:41.624Z,13.50
2019-02-16T10:15:18.050Z,13.50
2019-02-16T10:17:48.334Z,13.60
2019-02-16T10:20:24.020Z,13.70
2019-02-16T10:23:00.202Z,13.80
2019-02-16T10:25:30.434Z,13.80
2019-02-16T10:28:00.632Z,13.90
2019-02-16T10:30:33.794Z,14.00
2019-02-16T10:33:03.982Z,14.10
2019-02-16T10:35:46.899Z,14.20
2019-02-16T10:38:26.054Z,14.20
2019-02-16T10:41:14.120Z,14.30
2019-02-16T10:43:50.064Z,14.40
2019-02-16T10:46:35.469Z,14.50
2019-02-16T10:49:07.051Z,14.50
2019-02-16T10:51:49.078Z,14.60
2019-02-16T10:54:26.984Z,14.70
2019-02-16T10:56:57.047Z,14.80
2019-02-16T10:59:30.761Z,14.80
2019-02-16T11:02:09.966Z,14.90
2019-02-16T11:04:56.834Z,15.00
2019-02-16T11:07:29.954Z,15.10
2019-02-16T11:10:09.165Z,15.10
2019-02-16T11:12:39.548Z,15.20
2019-02-16T11:15:21.306Z,15.30
2019-02-16T11:18:07.294Z,15.40
2019-02-16T11:20:49.077Z,15.40
2019-02-16T11:23:34.214Z,15.50
2019-02-16T11:26:16.147Z,15.60
2019-02-16T11:29:02.308Z,15.60
2019-02-16T11:31:38.280Z,15.70
2019-02-16T11:34:09.425Z,15.80
2019-02-16T11:36:45.348Z,15.80
2019-02-16T11:39:15.553Z,15.90
2019-02-16T11:41:48.026Z,16.00
2019-02-16T11:44:20.942Z,16.10
2019-02-16T11:47:06.408Z,15.90
2019-02-16T11:49:51.371Z,16.20
2019-02-16T11:52:27.325Z,16.30
2019-02-16T11:54:57.569Z,16.50
2019-02-16T11:57:45.934Z,16.50
2019-02-16T12:00:24.992Z,16.60
2019-02-16T12:02:55.186Z,16.80
2019-02-16T12:05:27.979Z,16.90
2019-02-16T12:07:58.156Z,17.00
2019-02-16T12:10:37.306Z,17.00
2019-02-16T12:13:07.509Z,17.10
2019-02-16T12:15:37.712Z,17.20
2019-02-16T12:18:19.649Z,17.40
2019-02-16T12:20:52.556Z,17.50
2019-02-16T12:23:25.500Z,17.60
2019-02-16T12:26:01.686Z,17.70
2019-02-16T12:28:37.351Z,17.80
2019-02-16T12:31:08.578Z,17.90
2019-02-16T12:33:41.250Z,18.10
2019-02-16T12:36:16.976Z,18.20
2019-02-16T12:38:47.181Z,18.30
2019-02-16T12:41:32.236Z,18.40
2019-02-16T12:44:05.095Z,18.50
2019-02-16T12:46:35.284Z,18.60
2019-02-16T12:49:05.495Z,18.70
2019-02-16T12:51:50.621Z,18.80
2019-02-16T12:58:01.117Z,19.00
2019-02-16T13:00:33.760Z,19.10
2019-02-16T13:03:20.288Z,19.20
2019-02-16T13:05:53.022Z,19.30
2019-02-16T13:08:25.909Z,19.40
2019-02-16T13:10:56.110Z,19.50
2019-02-16T13:13:29.035Z,19.60
2019-02-16T13:16:05.221Z,19.60
2019-02-16T13:18:36.000Z,19.70
2019-02-16T13:21:08.656Z,19.80
2019-02-16T13:23:38.848Z,19.90
2019-02-16T13:26:17.874Z,20.00
2019-02-16T13:29:04.168Z,20.10
2019-02-16T13:31:49.141Z,20.30
2019-02-16T13:34:22.013Z,20.60
2019-02-16T13:36:55.193Z,20.90
2019-02-16T13:39:25.407Z,21.40
2019-02-16T13:41:58.518Z,21.80
2019-02-16T13:44:31.626Z,22.50
2019-02-16T13:47:01.848Z,23.20
2019-02-16T13:49:38.423Z,24.00
2019-02-16T13:52:11.563Z,24.80
2019-02-16T13:54:41.771Z,25.70
2019-02-16T13:57:27.698Z,26.40
2019-02-16T14:00:00.836Z,27.10
2019-02-16T14:02:31.014Z,27.90
2019-02-16T14:05:01.223Z,28.50
2019-02-16T14:07:34.354Z,29.00
2019-02-16T14:10:07.386Z,29.60
2019-02-16T14:12:43.487Z,30.20
2019-02-16T14:15:29.600Z,30.80
2019-02-16T14:17:58.182Z,31.40
2019-02-16T14:20:26.818Z,31.90
2019-02-16T14:22:55.414Z,32.30
2019-02-16T14:25:25.604Z,32.70
2019-02-16T14:27:54.219Z,33.10
2019-02-16T14:30:22.802Z,33.50
2019-02-16T14:32:51.416Z,33.60
2019-02-16T14:35:20.038Z,33.50
2019-02-16T14:37:52.996Z,33.30
2019-02-16T14:40:22.764Z,33.10
2019-02-16T14:42:51.351Z,33.10
2019-02-16T14:45:19.927Z,33.10
2019-02-16T14:47:48.515Z,33.10
2019-02-16T14:50:17.381Z,33.20
2019-02-16T14:52:45.988Z,33.30
2019-02-16T14:55:16.719Z,33.40
2019-02-16T14:57:45.348Z,33.60
2019-02-16T15:00:13.991Z,33.80
2019-02-16T15:02:42.645Z,33.90
2019-02-16T15:05:11.352Z,34.00
2019-02-16T15:07:40.020Z,34.20
2019-02-16T15:10:10.984Z,34.40
2019-02-16T15:12:39.628Z,34.50
2019-02-16T15:15:10.018Z,34.70
2019-02-16T15:17:38.579Z,34.90
2019-02-16T15:20:15.417Z,35.00
2019-02-16T15:22:43.967Z,34.80
2019-02-16T15:25:12.765Z,34.20
2019-02-16T15:27:41.298Z,33.50
2019-02-16T15:30:18.271Z,32.50
2019-02-16T15:32:46.879Z,31.50
2019-02-16T15:35:15.452Z,30.40
2019-02-16T15:37:44.002Z,29.40
2019-02-16T15:40:12.988Z,28.40
2019-02-16T15:42:41.525Z,27.60
2019-02-16T15:45:16.215Z,26.70
2019-02-16T15:47:44.741Z,25.90
2019-02-16T15:50:14.926Z,25.10
2019-02-16T15:52:43.475Z,24.40
2019-02-16T15:55:12.886Z,23.80
2019-02-16T15:57:41.417Z,23.20
2019-02-16T16:00:16.515Z,22.70
2019-02-16T16:02:45.187Z,22.20
2019-02-16T16:05:13.798Z,21.80
2019-02-16T16:07:44.106Z,21.40
2019-02-16T16:10:17.348Z,21.00
2019-02-16T16:13:03.501Z,20.70
2019-02-16T16:15:41.726Z,20.40
2019-02-16T16:18:11.548Z,20.10
2019-02-16T16:20:51.617Z,19.80
2019-02-16T16:23:21.803Z,19.60
2019-02-16T16:25:57.472Z,19.40
2019-02-16T16:28:29.460Z,19.10
2019-02-16T16:31:17.834Z,18.90
2019-02-16T16:34:05.875Z,18.70
2019-02-16T16:36:36.108Z,18.50
2019-02-16T16:39:22.904Z,18.30
2019-02-16T16:41:55.806Z,18.10
2019-02-16T16:44:26.000Z,18.00
2019-02-16T16:47:05.354Z,17.80
2019-02-16T16:49:38.507Z,17.70
2019-02-16T16:52:14.477Z,17.60
2019-02-16T16:55:02.836Z,17.50
2019-02-16T16:57:36.007Z,17.40
2019-02-16T17:00:13.227Z,17.20
2019-02-16T17:02:59.705Z,17.20
2019-02-16T17:05:47.751Z,17.00
2019-02-16T17:08:21.049Z,16.90
2019-02-16T17:11:03.084Z,16.80
2019-02-16T17:13:34.593Z,16.70
2019-02-16T17:16:10.621Z,16.60
2019-02-16T17:18:43.343Z,16.50
2019-02-16T17:21:22.372Z,16.40
2019-02-16T17:24:01.673Z,16.40
2019-02-16T17:26:37.829Z,16.30
2019-02-16T17:29:09.775Z,16.20
2019-02-16T17:31:48.694Z,16.10
2019-02-16T17:34:34.133Z,16.00
2019-02-16T17:37:22.131Z,16.00
2019-02-16T17:39:52.335Z,15.80
2019-02-16T17:42:22.532Z,15.80
2019-02-16T17:44:58.448Z,15.70
2019-02-16T17:47:31.565Z,15.60
2019-02-16T17:50:01.800Z,15.60
2019-02-16T17:52:40.823Z,15.50
2019-02-16T17:55:11.105Z,15.40
2019-02-16T17:57:41.293Z,15.30
2019-02-16T18:00:13.645Z,15.30
2019-02-16T18:02:46.339Z,15.20
2019-02-16T18:05:25.418Z,15.10
2019-02-16T18:07:58.407Z,15.10
2019-02-16T18:10:43.407Z,15.00
2019-02-16T18:13:31.156Z,14.90
2019-02-16T18:16:03.892Z,14.90
2019-02-16T18:18:40.000Z,14.80
2019-02-16T18:21:10.220Z,14.70
2019-02-16T18:23:40.419Z,14.70
2019-02-16T18:26:13.235Z,14.60
2019-02-16T18:29:01.418Z,14.60
2019-02-16T18:31:31.616Z,14.50
2019-02-16T18:34:02.021Z,14.50
2019-02-16T18:36:35.027Z,14.40
2019-02-16T18:39:06.587Z,14.30
2019-02-16T18:41:39.246Z,14.30
2019-02-16T18:44:14.962Z,14.20
2019-02-16T18:46:48.124Z,14.20
2019-02-16T18:49:34.483Z,14.10
2019-02-16T18:52:04.690Z,14.10
2019-02-16T18:54:34.877Z,14.00
2019-02-16T18:57:16.670Z,14.00
2019-02-16T18:59:55.830Z,13.90
2019-02-16T19:02:27.478Z,13.90
2019-02-16T19:05:00.652Z,13.80
2019-02-16T19:07:39.674Z,13.80
2019-02-16T19:10:09.999Z,13.70
2019-02-16T19:12:58.102Z,13.70
2019-02-16T19:15:31.376Z,13.60
2019-02-16T19:18:19.676Z,13.50
2019-02-16T19:20:58.852Z,13.50
2019-02-16T19:23:32.561Z,13.40
2019-02-16T19:26:09.479Z,13.40
2019-02-16T19:28:55.760Z,13.30
2019-02-16T19:31:31.741Z,13.20
2019-02-16T19:34:04.934Z,13.10
2019-02-16T19:36:35.102Z,13.10
2019-02-16T19:39:11.455Z,13.10
2019-02-16T19:41:44.416Z,13.00
2019-02-16T19:44:23.348Z,13.00
2019-02-16T19:47:02.555Z,12.90
2019-02-16T19:49:32.704Z,12.90
2019-02-16T19:52:18.035Z,12.90
2019-02-16T19:54:50.733Z,12.80
2019-02-16T19:57:38.809Z,12.70
2019-02-16T20:00:21.289Z,12.70
2019-02-16T20:03:00.352Z,12.70
2019-02-16T20:05:48.509Z,12.60
2019-02-16T20:08:34.802Z,12.50
2019-02-16T20:11:13.768Z,12.50
2019-02-16T20:13:55.873Z,12.50
2019-02-16T20:16:31.783Z,12.40
2019-02-16T20:19:01.885Z,12.40
2019-02-16T20:21:37.827Z,12.30
2019-02-16T20:24:24.190Z,12.30
2019-02-16T20:27:03.224Z,12.20
2019-02-16T20:29:39.515Z,12.20
2019-02-16T20:32:15.801Z,12.20
2019-02-16T20:34:52.122Z,12.10
2019-02-16T20:37:22.310Z,12.10
2019-02-16T20:39:58.101Z,12.00
2019-02-16T20:42:28.287Z,12.00
2019-02-16T20:44:58.482Z,12.00
2019-02-16T20:47:28.690Z,11.90
2019-02-16T20:50:04.923Z,11.90
2019-02-16T20:52:51.421Z,11.90
2019-02-16T20:55:27.720Z,11.80
2019-02-16T20:58:00.927Z,11.80
2019-02-16T21:00:37.047Z,11.80
2019-02-16T21:03:23.250Z,11.70
2019-02-16T21:06:08.290Z,11.70
2019-02-16T21:08:41.328Z,11.70
2019-02-16T21:11:17.345Z,11.60
2019-02-16T21:13:47.871Z,11.50
2019-02-16T21:16:28.574Z,11.50
2019-02-16T21:19:14.755Z,11.40
2019-02-16T21:21:56.556Z,11.40
2019-02-16T21:24:29.201Z,11.40
2019-02-16T21:27:01.969Z,11.30
2019-02-16T21:29:32.168Z,11.30
2019-02-16T21:32:08.451Z,11.20
2019-02-16T21:34:47.493Z,11.20
2019-02-16T21:37:17.706Z,11.20
2019-02-16T21:39:53.618Z,11.20
2019-02-16T21:42:26.475Z,11.20
2019-02-16T21:44:56.603Z,11.10
2019-02-16T21:47:26.818Z,11.10
2019-02-16T21:50:11.925Z,11.10
2019-02-16T21:52:42.113Z,11.00
2019-02-16T21:55:15.171Z,11.00
2019-02-16T21:58:07.564Z,11.00
2019-02-16T22:00:32.304Z,11.00
2019-02-16T22:03:02.556Z,10.90
2019-02-16T22:05:48.624Z,10.90
2019-02-16T22:08:18.849Z,10.90
2019-02-16T22:10:55.138Z,10.90
2019-02-16T22:13:23.676Z,10.80
2019-02-16T22:15:52.255Z,10.80
2019-02-16T22:18:20.833Z,10.80
2019-02-16T22:20:49.426Z,10.70
2019-02-16T22:23:20.087Z,10.70
2019-02-16T22:25:48.649Z,10.70
2019-02-16T22:28:20.434Z,10.70
2019-02-16T22:30:47.448Z,10.70
2019-02-16T22:33:16.007Z,10.70
2019-02-16T22:35:44.580Z,10.60
2019-02-16T22:38:13.123Z,10.60
2019-02-16T22:40:41.699Z,10.60
2019-02-16T22:43:10.258Z,10.60
2019-02-16T22:45:38.829Z,10.60
2019-02-16T22:48:07.296Z,10.60
2019-02-16T22:50:35.835Z,10.50
2019-02-16T22:53:04.327Z,10.50
2019-02-16T22:55:32.897Z,10.50
2019-02-16T22:58:01.491Z,10.50
2019-02-16T23:00:34.601Z,10.40
2019-02-16T23:03:03.188Z,10.40
2019-02-16T23:05:31.740Z,10.40
2019-02-16T23:08:00.321Z,10.30
2019-02-16T23:10:28.856Z,10.30
2019-02-16T23:12:57.445Z,10.20
2019-02-16T23:15:25.984Z,10.20
2019-02-16T23:17:54.477Z,10.20
2019-02-16T23:20:23.037Z,10.10
2019-02-16T23:22:51.617Z,10.10
2019-02-16T23:25:20.250Z,10.10
2019-02-16T23:27:48.816Z,10.10
2019-02-16T23:30:17.442Z,10.00
2019-02-16T23:32:46.069Z,10.00
2019-02-16T23:35:14.560Z,10.00
2019-02-16T23:37:43.142Z,9.90
2019-02-16T23:40:11.744Z,9.90
2019-02-16T23:42:40.242Z,9.90
2019-02-16T23:45:10.065Z,9.90
2019-02-16T23:47:38.619Z,9.90
2019-02-16T23:50:09.707Z,9.90
2019-02-16T23:52:38.246Z,9.90
2019-02-16T23:55:09.450Z,9.90
2019-02-16T23:57:38.064Z,9.90
